sensor_id;sensor_type;location;lat;lon;timestamp;pressure;altitude;pressure_sealevel;temperature;humidity
18527;BME280;9393;42.158;24.748;2022-09-04T00:00:11;99822.91;;;23.48;66.40
18527;BME280;9393;42.158;24.748;2022-09-04T00:03:29;99827.13;;;23.55;66.20
18527;BME280;9393;42.158;24.748;2022-09-04T00:06:41;99823.84;;;23.60;65.73
18527;BME280;9393;42.158;24.748;2022-09-04T00:10:00;99825.03;;;23.64;65.21
18527;BME280;9393;42.158;24.748;2022-09-04T00:13:16;99823.78;;;23.42;66.02
18527;BME280;9393;42.158;24.748;2022-09-04T00:16:25;99836.13;;;23.61;65.45
18527;BME280;9393;42.158;24.748;2022-09-04T00:19:34;99839.47;;;23.50;65.50
18527;BME280;9393;42.158;24.748;2022-09-04T00:22:45;99850.19;;;23.68;65.56
18527;BME280;9393;42.158;24.748;2022-09-04T00:25:57;99852.78;;;23.75;64.94
18527;BME280;9393;42.158;24.748;2022-09-04T00:29:13;99855.97;;;23.83;64.80
18527;BME280;9393;42.158;24.748;2022-09-04T00:32:31;99860.72;;;23.81;64.15
18527;BME280;9393;42.158;24.748;2022-09-04T00:35:40;99865.00;;;23.82;64.27
18527;BME280;9393;42.158;24.748;2022-09-04T00:38:47;99876.69;;;23.81;64.77
18527;BME280;9393;42.158;24.748;2022-09-04T00:42:04;99877.72;;;23.55;65.92
18527;BME280;9393;42.158;24.748;2022-09-04T00:45:24;99874.41;;;23.60;66.38
18527;BME280;9393;42.158;24.748;2022-09-04T00:48:51;99882.00;;;23.81;65.48
18527;BME280;9393;42.158;24.748;2022-09-04T00:52:10;99880.94;;;23.64;66.57
18527;BME280;9393;42.158;24.748;2022-09-04T00:55:29;99880.63;;;23.54;67.21
18527;BME280;9393;42.158;24.748;2022-09-04T00:58:53;99886.72;;;23.30;68.48
18527;BME280;9393;42.158;24.748;2022-09-04T01:02:06;99878.44;;;23.38;67.88
18527;BME280;9393;42.158;24.748;2022-09-04T01:05:18;99882.34;;;23.35;68.13
18527;BME280;9393;42.158;24.748;2022-09-04T01:08:34;99885.06;;;23.29;68.37
18527;BME280;9393;42.158;24.748;2022-09-04T01:11:50;99892.66;;;23.25;69.00
18527;BME280;9393;42.158;24.748;2022-09-04T01:15:04;99896.56;;;23.23;69.06
18527;BME280;9393;42.158;24.748;2022-09-04T01:18:21;99890.22;;;22.92;70.35
18527;BME280;9393;42.158;24.748;2022-09-04T01:21:49;99899.09;;;23.11;69.76
18527;BME280;9393;42.158;24.748;2022-09-04T01:25:12;99892.28;;;23.22;69.51
18527;BME280;9393;42.158;24.748;2022-09-04T01:28:27;99893.78;;;23.11;70.22
18527;BME280;9393;42.158;24.748;2022-09-04T01:31:41;99901.91;;;23.23;69.68
18527;BME280;9393;42.158;24.748;2022-09-04T01:34:54;99896.56;;;23.23;69.75
18527;BME280;9393;42.158;24.748;2022-09-04T01:38:10;99889.56;;;23.28;69.32
18527;BME280;9393;42.158;24.748;2022-09-04T01:41:21;99882.66;;;23.21;69.62
18527;BME280;9393;42.158;24.748;2022-09-04T01:44:28;99895.31;;;23.25;69.13
18527;BME280;9393;42.158;24.748;2022-09-04T01:47:39;99893.16;;;23.15;69.75
18527;BME280;9393;42.158;24.748;2022-09-04T01:50:48;99898.28;;;23.10;69.74
18527;BME280;9393;42.158;24.748;2022-09-04T01:54:06;99897.94;;;23.32;69.02
18527;BME280;9393;42.158;24.748;2022-09-04T01:57:28;99903.09;;;23.27;69.07
18527;BME280;9393;42.158;24.748;2022-09-04T02:00:40;99903.00;;;23.08;69.88
18527;BME280;9393;42.158;24.748;2022-09-04T02:03:56;99901.47;;;23.26;69.13
18527;BME280;9393;42.158;24.748;2022-09-04T02:07:09;99915.34;;;23.28;69.00
18527;BME280;9393;42.158;24.748;2022-09-04T02:10:27;99914.06;;;23.05;70.23
18527;BME280;9393;42.158;24.748;2022-09-04T02:13:40;99915.19;;;22.91;70.73
18527;BME280;9393;42.158;24.748;2022-09-04T02:16:57;99916.22;;;22.84;71.48
18527;BME280;9393;42.158;24.748;2022-09-04T02:20:18;99910.59;;;23.05;70.14
18527;BME280;9393;42.158;24.748;2022-09-04T02:23:31;99913.22;;;23.11;69.86
18527;BME280;9393;42.158;24.748;2022-09-04T02:26:41;99901.63;;;22.99;70.72
18527;BME280;9393;42.158;24.748;2022-09-04T02:29:51;99893.91;;;22.91;71.13
18527;BME280;9393;42.158;24.748;2022-09-04T02:33:05;99902.84;;;22.97;71.09
18527;BME280;9393;42.158;24.748;2022-09-04T02:36:17;99893.91;;;22.91;71.23
18527;BME280;9393;42.158;24.748;2022-09-04T02:39:40;99891.66;;;22.88;71.49
18527;BME280;9393;42.158;24.748;2022-09-04T02:42:57;99888.69;;;22.65;72.31
18527;BME280;9393;42.158;24.748;2022-09-04T02:46:08;99894.00;;;22.72;72.15
18527;BME280;9393;42.158;24.748;2022-09-04T02:49:23;99895.72;;;22.40;73.21
18527;BME280;9393;42.158;24.748;2022-09-04T02:52:54;99894.44;;;22.49;72.97
18527;BME280;9393;42.158;24.748;2022-09-04T02:56:14;99900.34;;;22.64;72.39
18527;BME280;9393;42.158;24.748;2022-09-04T02:59:31;99894.41;;;22.75;72.04
18527;BME280;9393;42.158;24.748;2022-09-04T03:02:41;99898.13;;;22.54;72.70
18527;BME280;9393;42.158;24.748;2022-09-04T03:06:01;99901.03;;;22.40;72.92
18527;BME280;9393;42.158;24.748;2022-09-04T03:09:14;99906.09;;;22.61;72.38
18527;BME280;9393;42.158;24.748;2022-09-04T03:12:28;99895.25;;;22.56;72.33
18527;BME280;9393;42.158;24.748;2022-09-04T03:15:38;99895.63;;;22.66;71.64
18527;BME280;9393;42.158;24.748;2022-09-04T03:18:57;99907.69;;;22.62;71.93
18527;BME280;9393;42.158;24.748;2022-09-04T03:22:10;99910.56;;;22.67;71.79
18527;BME280;9393;42.158;24.748;2022-09-04T03:25:49;99908.38;;;22.51;72.16
18527;BME280;9393;42.158;24.748;2022-09-04T03:29:02;99906.47;;;22.71;71.26
18527;BME280;9393;42.158;24.748;2022-09-04T03:32:17;99916.69;;;22.74;70.93
18527;BME280;9393;42.158;24.748;2022-09-04T03:35:29;99919.16;;;22.62;71.65
18527;BME280;9393;42.158;24.748;2022-09-04T03:38:44;99923.34;;;22.90;70.86
18527;BME280;9393;42.158;24.748;2022-09-04T03:41:58;99910.81;;;22.46;72.17
18527;BME280;9393;42.158;24.748;2022-09-04T03:45:16;99929.22;;;22.54;72.15
18527;BME280;9393;42.158;24.748;2022-09-04T03:48:31;99924.69;;;22.61;71.49
18527;BME280;9393;42.158;24.748;2022-09-04T03:51:50;99919.94;;;22.76;71.29
18527;BME280;9393;42.158;24.748;2022-09-04T03:58:33;99932.00;;;22.72;71.65
18527;BME280;9393;42.158;24.748;2022-09-04T04:01:45;99929.44;;;22.46;72.93
18527;BME280;9393;42.158;24.748;2022-09-04T04:05:25;99942.75;;;22.33;73.29
18527;BME280;9393;42.158;24.748;2022-09-04T04:08:39;99948.25;;;22.51;72.60
18527;BME280;9393;42.158;24.748;2022-09-04T04:12:03;99956.47;;;22.94;70.76
18527;BME280;9393;42.158;24.748;2022-09-04T04:15:26;99962.31;;;22.71;71.43
18527;BME280;9393;42.158;24.748;2022-09-04T04:22:17;99977.63;;;22.82;70.45
18527;BME280;9393;42.158;24.748;2022-09-04T04:25:49;99977.63;;;22.76;70.86
18527;BME280;9393;42.158;24.748;2022-09-04T04:29:22;99987.09;;;22.39;72.34
18527;BME280;9393;42.158;24.748;2022-09-04T04:32:45;99987.44;;;22.69;70.78
18527;BME280;9393;42.158;24.748;2022-09-04T04:35:59;99988.91;;;22.51;71.37
18527;BME280;9393;42.158;24.748;2022-09-04T04:39:22;99983.81;;;22.50;71.25
18527;BME280;9393;42.158;24.748;2022-09-04T04:42:37;100003.41;;;22.69;70.65
18527;BME280;9393;42.158;24.748;2022-09-04T04:45:50;100005.88;;;22.50;71.49
18527;BME280;9393;42.158;24.748;2022-09-04T04:49:27;100012.38;;;22.81;70.17
18527;BME280;9393;42.158;24.748;2022-09-04T04:52:45;100005.88;;;22.70;70.22
18527;BME280;9393;42.158;24.748;2022-09-04T04:55:54;100020.16;;;22.82;69.81
18527;BME280;9393;42.158;24.748;2022-09-04T04:59:07;100021.59;;;22.85;69.60
18527;BME280;9393;42.158;24.748;2022-09-04T05:02:27;100024.47;;;22.57;70.62
18527;BME280;9393;42.158;24.748;2022-09-04T05:05:54;100027.16;;;22.50;70.67
18527;BME280;9393;42.158;24.748;2022-09-04T05:09:06;100036.34;;;22.48;70.81
18527;BME280;9393;42.158;24.748;2022-09-04T05:12:19;100022.28;;;22.08;71.91
18527;BME280;9393;42.158;24.748;2022-09-04T05:15:33;100042.28;;;22.10;72.17
18527;BME280;9393;42.158;24.748;2022-09-04T05:19:04;100047.81;;;22.02;72.06
18527;BME280;9393;42.158;24.748;2022-09-04T05:22:14;100051.72;;;22.06;72.13
18527;BME280;9393;42.158;24.748;2022-09-04T05:25:26;100050.25;;;22.17;71.25
18527;BME280;9393;42.158;24.748;2022-09-04T05:28:42;100057.63;;;22.35;70.94
18527;BME280;9393;42.158;24.748;2022-09-04T05:31:53;100062.09;;;22.28;71.09
18527;BME280;9393;42.158;24.748;2022-09-04T05:35:05;100064.16;;;22.39;70.90
18527;BME280;9393;42.158;24.748;2022-09-04T05:38:16;100081.31;;;22.49;70.29
18527;BME280;9393;42.158;24.748;2022-09-04T05:41:35;100078.06;;;22.47;70.60
18527;BME280;9393;42.158;24.748;2022-09-04T05:44:53;100068.06;;;22.23;71.53
18527;BME280;9393;42.158;24.748;2022-09-04T05:48:06;100072.94;;;22.59;70.57
18527;BME280;9393;42.158;24.748;2022-09-04T05:51:49;100078.06;;;22.47;71.03
18527;BME280;9393;42.158;24.748;2022-09-04T05:55:19;100077.06;;;22.68;70.39
18527;BME280;9393;42.158;24.748;2022-09-04T05:58:44;100083.78;;;22.77;69.53
18527;BME280;9393;42.158;24.748;2022-09-04T06:02:04;100082.75;;;22.78;70.27
18527;BME280;9393;42.158;24.748;2022-09-04T06:05:23;100081.56;;;22.68;70.45
18527;BME280;9393;42.158;24.748;2022-09-04T06:08:46;100076.16;;;22.94;69.23
18527;BME280;9393;42.158;24.748;2022-09-04T06:12:06;100073.97;;;22.71;70.26
18527;BME280;9393;42.158;24.748;2022-09-04T06:15:35;100068.13;;;23.13;68.63
18527;BME280;9393;42.158;24.748;2022-09-04T06:18:51;100074.44;;;23.26;68.25
18527;BME280;9393;42.158;24.748;2022-09-04T06:22:26;100070.75;;;23.27;68.31
18527;BME280;9393;42.158;24.748;2022-09-04T06:25:57;100070.56;;;23.22;68.71
18527;BME280;9393;42.158;24.748;2022-09-04T06:29:24;100058.63;;;23.31;68.60
18527;BME280;9393;42.158;24.748;2022-09-04T06:33:04;100062.47;;;23.48;67.01
18527;BME280;9393;42.158;24.748;2022-09-04T06:36:34;100066.19;;;23.40;67.51
18527;BME280;9393;42.158;24.748;2022-09-04T06:39:52;100067.84;;;23.41;67.46
18527;BME280;9393;42.158;24.748;2022-09-04T06:43:11;100066.72;;;23.62;66.24
18527;BME280;9393;42.158;24.748;2022-09-04T06:46:21;100073.16;;;23.35;66.92
18527;BME280;9393;42.158;24.748;2022-09-04T06:49:36;100078.09;;;23.76;65.28
18527;BME280;9393;42.158;24.748;2022-09-04T06:52:58;100071.00;;;23.63;66.13
18527;BME280;9393;42.158;24.748;2022-09-04T06:56:22;100072.31;;;23.85;65.32
18527;BME280;9393;42.158;24.748;2022-09-04T06:59:54;100062.91;;;23.83;65.10
18527;BME280;9393;42.158;24.748;2022-09-04T07:06:42;100052.88;;;24.59;63.37
18527;BME280;9393;42.158;24.748;2022-09-04T07:09:53;100044.78;;;24.90;61.86
18527;BME280;9393;42.158;24.748;2022-09-04T07:13:21;100052.06;;;25.01;62.06
18527;BME280;9393;42.158;24.748;2022-09-04T07:16:40;100046.84;;;25.06;61.19
18527;BME280;9393;42.158;24.748;2022-09-04T07:19:55;100044.56;;;25.10;61.90
18527;BME280;9393;42.158;24.748;2022-09-04T07:23:17;100060.41;;;26.12;58.44
18527;BME280;9393;42.158;24.748;2022-09-04T07:26:31;100051.34;;;26.13;57.66
18527;BME280;9393;42.158;24.748;2022-09-04T07:29:38;100050.94;;;25.75;58.88
18527;BME280;9393;42.158;24.748;2022-09-04T07:32:49;100043.03;;;25.80;59.24
18527;BME280;9393;42.158;24.748;2022-09-04T07:35:59;100045.53;;;25.63;59.11
18527;BME280;9393;42.158;24.748;2022-09-04T07:39:13;100048.19;;;26.05;57.60
18527;BME280;9393;42.158;24.748;2022-09-04T07:42:28;100042.84;;;26.05;58.21
18527;BME280;9393;42.158;24.748;2022-09-04T07:45:36;100047.41;;;26.97;55.54
18527;BME280;9393;42.158;24.748;2022-09-04T07:48:45;100046.50;;;26.80;56.10
18527;BME280;9393;42.158;24.748;2022-09-04T07:51:54;100056.06;;;26.53;55.98
18527;BME280;9393;42.158;24.748;2022-09-04T07:55:22;100052.75;;;27.49;54.40
18527;BME280;9393;42.158;24.748;2022-09-04T07:58:50;100065.94;;;27.95;51.90
18527;BME280;9393;42.158;24.748;2022-09-04T08:02:22;100067.19;;;27.76;51.81
18527;BME280;9393;42.158;24.748;2022-09-04T08:05:33;100068.28;;;27.75;52.20
18527;BME280;9393;42.158;24.748;2022-09-04T08:09:10;100068.28;;;27.47;52.28
18527;BME280;9393;42.158;24.748;2022-09-04T08:12:32;100062.47;;;28.12;50.79
18527;BME280;9393;42.158;24.748;2022-09-04T08:15:56;100071.47;;;28.05;50.74
18527;BME280;9393;42.158;24.748;2022-09-04T08:19:17;100054.31;;;27.90;51.26
18527;BME280;9393;42.158;24.748;2022-09-04T08:22:33;100062.56;;;28.50;49.85
18527;BME280;9393;42.158;24.748;2022-09-04T08:25:50;100061.59;;;28.23;50.45
18527;BME280;9393;42.158;24.748;2022-09-04T08:29:26;100053.94;;;29.03;48.03
18527;BME280;9393;42.158;24.748;2022-09-04T08:33:00;100050.50;;;28.02;50.04
18527;BME280;9393;42.158;24.748;2022-09-04T08:36:09;100060.19;;;28.53;49.59
18527;BME280;9393;42.158;24.748;2022-09-04T08:39:29;100049.94;;;28.67;48.94
18527;BME280;9393;42.158;24.748;2022-09-04T08:43:03;100050.13;;;28.44;49.55
18527;BME280;9393;42.158;24.748;2022-09-04T08:50:16;100044.13;;;29.62;46.76
18527;BME280;9393;42.158;24.748;2022-09-04T08:53:50;100039.84;;;29.18;47.44
18527;BME280;9393;42.158;24.748;2022-09-04T09:00:29;100036.91;;;28.97;47.90
18527;BME280;9393;42.158;24.748;2022-09-04T09:07:48;100041.72;;;28.74;48.61
18527;BME280;9393;42.158;24.748;2022-09-04T09:11:17;100036.69;;;27.94;49.99
18527;BME280;9393;42.158;24.748;2022-09-04T09:14:53;100042.50;;;27.57;51.38
18527;BME280;9393;42.158;24.748;2022-09-04T09:18:12;100042.88;;;28.61;48.89
18527;BME280;9393;42.158;24.748;2022-09-04T09:21:31;100043.34;;;28.75;48.55
18527;BME280;9393;42.158;24.748;2022-09-04T09:25:07;100035.81;;;29.37;47.09
18527;BME280;9393;42.158;24.748;2022-09-04T09:32:22;100042.25;;;28.76;48.17
18527;BME280;9393;42.158;24.748;2022-09-04T09:36:12;100053.75;;;29.09;47.17
18527;BME280;9393;42.158;24.748;2022-09-04T09:47:27;100041.91;;;28.17;49.97
18527;BME280;9393;42.158;24.748;2022-09-04T09:50:58;100036.63;;;27.89;50.54
18527;BME280;9393;42.158;24.748;2022-09-04T09:54:23;100042.38;;;27.97;50.59
18527;BME280;9393;42.158;24.748;2022-09-04T09:58:02;100049.03;;;27.78;50.88
18527;BME280;9393;42.158;24.748;2022-09-04T10:01:25;100039.66;;;27.64;51.50
18527;BME280;9393;42.158;24.748;2022-09-04T10:04:56;100039.84;;;28.57;49.35
18527;BME280;9393;42.158;24.748;2022-09-04T10:15:37;100029.78;;;29.78;46.37
18527;BME280;9393;42.158;24.748;2022-09-04T10:19:13;100021.66;;;29.73;45.62
18527;BME280;9393;42.158;24.748;2022-09-04T10:22:56;100023.44;;;29.36;47.19
18527;BME280;9393;42.158;24.748;2022-09-04T10:29:59;100021.69;;;30.05;45.19
18527;BME280;9393;42.158;24.748;2022-09-04T10:33:26;100017.06;;;30.00;44.78
18527;BME280;9393;42.158;24.748;2022-09-04T10:36:40;100008.16;;;30.32;43.03
18527;BME280;9393;42.158;24.748;2022-09-04T10:40:03;100006.75;;;29.87;44.85
18527;BME280;9393;42.158;24.748;2022-09-04T10:43:37;100009.50;;;29.97;44.17
18527;BME280;9393;42.158;24.748;2022-09-04T10:46:54;99995.09;;;30.08;43.74
18527;BME280;9393;42.158;24.748;2022-09-04T10:50:16;99999.50;;;30.25;43.91
18527;BME280;9393;42.158;24.748;2022-09-04T10:53:41;99992.22;;;30.25;43.94
18527;BME280;9393;42.158;24.748;2022-09-04T10:57:02;99981.19;;;30.22;43.66
18527;BME280;9393;42.158;24.748;2022-09-04T11:00:11;99981.09;;;29.75;43.40
18527;BME280;9393;42.158;24.748;2022-09-04T11:03:40;99959.06;;;29.83;43.73
18527;BME280;9393;42.158;24.748;2022-09-04T11:07:04;99963.22;;;30.84;42.60
18527;BME280;9393;42.158;24.748;2022-09-04T11:10:30;99958.69;;;30.95;42.57
18527;BME280;9393;42.158;24.748;2022-09-04T11:14:01;99951.72;;;30.42;42.72
18527;BME280;9393;42.158;24.748;2022-09-04T11:17:50;99944.03;;;30.61;42.47
18527;BME280;9393;42.158;24.748;2022-09-04T11:25:08;99928.00;;;30.96;41.83
18527;BME280;9393;42.158;24.748;2022-09-04T11:28:43;99938.53;;;31.02;42.08
18527;BME280;9393;42.158;24.748;2022-09-04T11:32:12;99934.00;;;31.33;41.13
18527;BME280;9393;42.158;24.748;2022-09-04T11:39:30;99935.06;;;31.32;41.63
18527;BME280;9393;42.158;24.748;2022-09-04T11:42:54;99926.47;;;31.50;40.78
18527;BME280;9393;42.158;24.748;2022-09-04T11:46:26;99918.66;;;31.59;39.99
18527;BME280;9393;42.158;24.748;2022-09-04T11:49:51;99912.47;;;31.59;39.59
18527;BME280;9393;42.158;24.748;2022-09-04T11:53:24;99914.28;;;31.08;39.83
18527;BME280;9393;42.158;24.748;2022-09-04T11:56:41;99915.97;;;31.44;39.98
18527;BME280;9393;42.158;24.748;2022-09-04T12:00:06;99901.09;;;31.11;40.11
18527;BME280;9393;42.158;24.748;2022-09-04T12:03:33;99892.28;;;30.43;41.85
18527;BME280;9393;42.158;24.748;2022-09-04T12:06:56;99882.19;;;30.24;42.99
18527;BME280;9393;42.158;24.748;2022-09-04T12:10:19;99888.66;;;30.23;42.27
18527;BME280;9393;42.158;24.748;2022-09-04T12:13:51;99893.63;;;30.46;42.68
18527;BME280;9393;42.158;24.748;2022-09-04T12:17:16;99882.84;;;30.46;42.20
18527;BME280;9393;42.158;24.748;2022-09-04T12:20:41;99885.91;;;30.65;42.64
18527;BME280;9393;42.158;24.748;2022-09-04T12:24:16;99890.59;;;30.37;43.75
18527;BME280;9393;42.158;24.748;2022-09-04T12:31:30;99880.13;;;29.89;44.69
18527;BME280;9393;42.158;24.748;2022-09-04T12:38:27;99879.31;;;30.40;42.17
18527;BME280;9393;42.158;24.748;2022-09-04T12:41:39;99876.44;;;30.62;41.72
18527;BME280;9393;42.158;24.748;2022-09-04T12:44:59;99869.03;;;31.15;41.45
18527;BME280;9393;42.158;24.748;2022-09-04T12:48:09;99858.25;;;30.27;43.44
18527;BME280;9393;42.158;24.748;2022-09-04T12:51:17;99867.13;;;30.23;43.05
18527;BME280;9393;42.158;24.748;2022-09-04T12:54:30;99864.97;;;30.25;43.05
18527;BME280;9393;42.158;24.748;2022-09-04T12:57:44;99873.69;;;30.42;43.08
18527;BME280;9393;42.158;24.748;2022-09-04T13:00:58;99885.28;;;30.00;42.85
18527;BME280;9393;42.158;24.748;2022-09-04T13:04:15;99872.53;;;29.44;44.45
18527;BME280;9393;42.158;24.748;2022-09-04T13:07:40;99866.06;;;29.18;44.66
18527;BME280;9393;42.158;24.748;2022-09-04T13:10:55;99868.94;;;29.33;45.01
18527;BME280;9393;42.158;24.748;2022-09-04T13:14:30;99871.66;;;29.75;43.90
18527;BME280;9393;42.158;24.748;2022-09-04T13:17:45;99869.19;;;30.05;42.95
18527;BME280;9393;42.158;24.748;2022-09-04T13:20:58;99870.38;;;30.30;43.23
18527;BME280;9393;42.158;24.748;2022-09-04T13:24:12;99866.09;;;30.39;42.15
18527;BME280;9393;42.158;24.748;2022-09-04T13:27:32;99859.91;;;30.33;41.66
18527;BME280;9393;42.158;24.748;2022-09-04T13:30:45;99841.97;;;29.92;42.56
18527;BME280;9393;42.158;24.748;2022-09-04T13:34:02;99850.75;;;30.29;42.01
18527;BME280;9393;42.158;24.748;2022-09-04T13:37:16;99844.47;;;30.14;41.67
18527;BME280;9393;42.158;24.748;2022-09-04T13:40:31;99852.72;;;29.97;43.40
18527;BME280;9393;42.158;24.748;2022-09-04T13:43:56;99851.66;;;29.98;43.26
18527;BME280;9393;42.158;24.748;2022-09-04T13:47:06;99849.78;;;30.03;43.96
18527;BME280;9393;42.158;24.748;2022-09-04T13:50:17;99854.72;;;29.75;43.44
18527;BME280;9393;42.158;24.748;2022-09-04T13:53:35;99862.19;;;29.31;43.52
18527;BME280;9393;42.158;24.748;2022-09-04T13:56:45;99877.88;;;28.90;44.35
18527;BME280;9393;42.158;24.748;2022-09-04T13:59:52;99870.84;;;28.84;45.29
18527;BME280;9393;42.158;24.748;2022-09-04T14:03:04;99861.13;;;29.05;44.80
18527;BME280;9393;42.158;24.748;2022-09-04T14:06:14;99859.13;;;29.22;44.31
18527;BME280;9393;42.158;24.748;2022-09-04T14:09:18;99864.69;;;29.37;43.55
18527;BME280;9393;42.158;24.748;2022-09-04T14:12:33;99861.41;;;29.72;43.50
18527;BME280;9393;42.158;24.748;2022-09-04T14:15:56;99855.97;;;29.62;42.22
18527;BME280;9393;42.158;24.748;2022-09-04T14:19:33;99849.56;;;30.05;41.67
18527;BME280;9393;42.158;24.748;2022-09-04T14:22:48;99849.06;;;29.76;41.94
18527;BME280;9393;42.158;24.748;2022-09-04T14:25:58;99861.31;;;29.57;42.52
18527;BME280;9393;42.158;24.748;2022-09-04T14:29:12;99864.81;;;29.94;42.17
18527;BME280;9393;42.158;24.748;2022-09-04T14:32:23;99859.44;;;29.94;41.78
18527;BME280;9393;42.158;24.748;2022-09-04T14:35:38;99853.28;;;29.62;43.16
18527;BME280;9393;42.158;24.748;2022-09-04T14:42:36;99847.34;;;28.96;44.52
18527;BME280;9393;42.158;24.748;2022-09-04T14:46:09;99856.44;;;28.69;45.05
18527;BME280;9393;42.158;24.748;2022-09-04T14:49:19;99865.69;;;28.56;45.78
18527;BME280;9393;42.158;24.748;2022-09-04T14:52:27;99865.47;;;28.84;44.73
18527;BME280;9393;42.158;24.748;2022-09-04T14:55:41;99858.66;;;28.72;45.12
18527;BME280;9393;42.158;24.748;2022-09-04T14:59:12;99854.59;;;28.96;44.13
18527;BME280;9393;42.158;24.748;2022-09-04T15:02:23;99861.34;;;28.98;44.08
18527;BME280;9393;42.158;24.748;2022-09-04T15:05:32;99866.59;;;28.88;44.23
18527;BME280;9393;42.158;24.748;2022-09-04T15:08:39;99869.13;;;29.00;44.27
18527;BME280;9393;42.158;24.748;2022-09-04T15:11:42;99862.09;;;28.94;44.51
18527;BME280;9393;42.158;24.748;2022-09-04T15:14:49;99860.22;;;28.68;44.91
18527;BME280;9393;42.158;24.748;2022-09-04T15:17:56;99861.88;;;28.52;46.16
18527;BME280;9393;42.158;24.748;2022-09-04T15:21:07;99858.44;;;28.56;45.69
18527;BME280;9393;42.158;24.748;2022-09-04T15:24:19;99863.19;;;28.28;45.48
18527;BME280;9393;42.158;24.748;2022-09-04T15:27:34;99872.22;;;28.22;45.47
18527;BME280;9393;42.158;24.748;2022-09-04T15:30:45;99865.38;;;28.09;46.29
18527;BME280;9393;42.158;24.748;2022-09-04T15:33:58;99863.88;;;28.18;45.51
18527;BME280;9393;42.158;24.748;2022-09-04T15:37:12;99866.66;;;28.06;45.94
18527;BME280;9393;42.158;24.748;2022-09-04T15:40:26;99863.13;;;28.23;45.51
18527;BME280;9393;42.158;24.748;2022-09-04T15:43:33;99859.41;;;28.24;45.35
18527;BME280;9393;42.158;24.748;2022-09-04T15:46:43;99859.06;;;28.03;45.36
18527;BME280;9393;42.158;24.748;2022-09-04T15:49:51;99863.94;;;28.23;44.99
18527;BME280;9393;42.158;24.748;2022-09-04T15:53:07;99864.94;;;28.00;45.30
18527;BME280;9393;42.158;24.748;2022-09-04T15:56:29;99860.44;;;27.84;45.79
18527;BME280;9393;42.158;24.748;2022-09-04T15:59:43;99854.75;;;27.81;45.75
18527;BME280;9393;42.158;24.748;2022-09-04T16:02:53;99865.66;;;27.57;46.23
18527;BME280;9393;42.158;24.748;2022-09-04T16:06:02;99870.44;;;27.55;46.80
18527;BME280;9393;42.158;24.748;2022-09-04T16:09:10;99866.19;;;27.09;47.44
18527;BME280;9393;42.158;24.748;2022-09-04T16:12:23;99860.25;;;27.24;47.29
18527;BME280;9393;42.158;24.748;2022-09-04T16:15:31;99862.19;;;26.95;47.51
18527;BME280;9393;42.158;24.748;2022-09-04T16:18:48;99861.09;;;26.96;47.74
18527;BME280;9393;42.158;24.748;2022-09-04T16:21:59;99860.91;;;26.86;48.00
18527;BME280;9393;42.158;24.748;2022-09-04T16:25:06;99863.44;;;26.93;47.91
18527;BME280;9393;42.158;24.748;2022-09-04T16:28:15;99865.84;;;27.06;47.78
18527;BME280;9393;42.158;24.748;2022-09-04T16:31:28;99866.22;;;26.98;47.84
18527;BME280;9393;42.158;24.748;2022-09-04T16:34:36;99861.69;;;26.98;47.61
18527;BME280;9393;42.158;24.748;2022-09-04T16:37:43;99871.44;;;27.04;47.60
18527;BME280;9393;42.158;24.748;2022-09-04T16:40:53;99873.88;;;26.66;48.35
18527;BME280;9393;42.158;24.748;2022-09-04T16:44:13;99869.72;;;26.58;48.56
18527;BME280;9393;42.158;24.748;2022-09-04T16:47:34;99870.72;;;26.41;49.19
18527;BME280;9393;42.158;24.748;2022-09-04T16:50:45;99880.69;;;26.45;48.88
18527;BME280;9393;42.158;24.748;2022-09-04T16:53:55;99888.34;;;26.53;48.71
18527;BME280;9393;42.158;24.748;2022-09-04T16:57:09;99887.69;;;26.46;49.17
18527;BME280;9393;42.158;24.748;2022-09-04T17:00:16;99893.66;;;26.25;49.47
18527;BME280;9393;42.158;24.748;2022-09-04T17:03:23;99900.97;;;26.18;50.13
18527;BME280;9393;42.158;24.748;2022-09-04T17:06:29;99904.59;;;26.24;49.69
18527;BME280;9393;42.158;24.748;2022-09-04T17:09:53;99908.19;;;26.18;49.78
18527;BME280;9393;42.158;24.748;2022-09-04T17:13:07;99911.63;;;26.06;50.26
18527;BME280;9393;42.158;24.748;2022-09-04T17:16:17;99909.56;;;26.08;50.04
18527;BME280;9393;42.158;24.748;2022-09-04T17:19:23;99916.53;;;25.86;50.75
18527;BME280;9393;42.158;24.748;2022-09-04T17:22:29;99913.63;;;25.65;51.27
18527;BME280;9393;42.158;24.748;2022-09-04T17:26:02;99914.88;;;25.62;51.22
18527;BME280;9393;42.158;24.748;2022-09-04T17:29:33;99922.63;;;25.52;51.55
18527;BME280;9393;42.158;24.748;2022-09-04T17:32:55;99917.16;;;25.47;51.76
18527;BME280;9393;42.158;24.748;2022-09-04T17:36:25;99916.66;;;25.27;51.88
18527;BME280;9393;42.158;24.748;2022-09-04T17:39:52;99915.66;;;25.09;52.90
18527;BME280;9393;42.158;24.748;2022-09-04T17:43:24;99916.38;;;25.17;52.23
18527;BME280;9393;42.158;24.748;2022-09-04T17:46:33;99922.88;;;25.21;52.57
18527;BME280;9393;42.158;24.748;2022-09-04T17:49:44;99926.59;;;25.20;52.40
18527;BME280;9393;42.158;24.748;2022-09-04T17:52:55;99936.81;;;25.23;51.96
18527;BME280;9393;42.158;24.748;2022-09-04T17:56:09;99940.34;;;25.05;52.53
18527;BME280;9393;42.158;24.748;2022-09-04T17:59:20;99939.09;;;24.89;53.22
18527;BME280;9393;42.158;24.748;2022-09-04T18:02:34;99955.78;;;25.03;52.77
18527;BME280;9393;42.158;24.748;2022-09-04T18:05:43;99958.34;;;25.09;52.32
18527;BME280;9393;42.158;24.748;2022-09-04T18:08:57;99957.34;;;24.92;52.46
18527;BME280;9393;42.158;24.748;2022-09-04T18:12:09;99963.63;;;24.98;52.57
18527;BME280;9393;42.158;24.748;2022-09-04T18:15:19;99974.59;;;24.90;52.66
18527;BME280;9393;42.158;24.748;2022-09-04T18:18:41;99976.97;;;24.98;52.63
18527;BME280;9393;42.158;24.748;2022-09-04T18:21:51;99981.50;;;24.97;52.68
18527;BME280;9393;42.158;24.748;2022-09-04T18:25:17;99992.31;;;25.02;53.12
18527;BME280;9393;42.158;24.748;2022-09-04T18:28:27;100006.25;;;25.04;53.24